createdAt,value
2018-06-25T00:00:03.820Z,75.06
2018-06-25T00:02:32.923Z,74.97
2018-06-25T00:05:01.786Z,74.90
2018-06-25T00:07:30.694Z,74.89
2018-06-25T00:10:01.768Z,74.94
2018-06-25T00:12:28.564Z,74.86
2018-06-25T00:14:57.550Z,74.59
2018-06-25T00:17:26.380Z,74.64
2018-06-25T00:19:55.318Z,74.79
2018-06-25T00:22:24.321Z,74.59
2018-06-25T00:24:53.224Z,74.52
2018-06-25T00:27:22.145Z,74.87
2018-06-25T00:29:51.066Z,74.64
2018-06-25T00:32:20.192Z,74.83
2018-06-25T00:34:49.166Z,74.03
2018-06-25T00:37:18.080Z,74.71
2018-06-25T00:39:48.712Z,74.51
2018-06-25T00:42:17.614Z,74.15
2018-06-25T00:44:46.583Z,74.18
2018-06-25T00:47:15.486Z,74.47
2018-06-25T00:49:44.412Z,74.25
2018-06-25T00:52:13.386Z,74.34
2018-06-25T00:54:42.348Z,74.35
2018-06-25T00:57:11.184Z,74.49
2018-06-25T00:59:54.051Z,74.37
2018-06-25T01:02:23.068Z,74.58
2018-06-25T01:04:51.958Z,74.81
2018-06-25T01:07:21.026Z,75.15
2018-06-25T01:09:50.053Z,75.01
2018-06-25T01:12:18.939Z,75.55
2018-06-25T01:14:47.825Z,75.05
2018-06-25T01:17:16.702Z,74.96
2018-06-25T01:19:45.684Z,74.92
2018-06-25T01:22:14.553Z,74.98
2018-06-25T01:24:43.496Z,75.10
2018-06-25T01:27:12.386Z,75.02
2018-06-25T01:29:42.146Z,74.66
2018-06-25T01:32:11.058Z,74.59
2018-06-25T01:34:39.982Z,74.70
2018-06-25T01:37:08.918Z,74.99
2018-06-25T01:39:37.778Z,74.96
2018-06-25T01:42:06.655Z,75.06
2018-06-25T01:44:35.544Z,75.01
2018-06-25T01:47:04.424Z,74.07
2018-06-25T01:49:33.293Z,74.77
2018-06-25T01:52:02.215Z,73.37
2018-06-25T01:54:31.226Z,72.85
2018-06-25T01:57:00.122Z,73.85
2018-06-25T01:59:29.079Z,74.09
2018-06-25T02:01:58.098Z,74.26
2018-06-25T02:04:26.876Z,74.43
2018-06-25T02:06:55.830Z,74.38
2018-06-25T02:09:24.725Z,74.39
2018-06-25T02:11:53.639Z,74.36
2018-06-25T02:14:22.559Z,74.43
2018-06-25T02:16:51.592Z,74.83
2018-06-25T02:19:23.094Z,74.21
2018-06-25T02:21:52.018Z,74.36
2018-06-25T02:24:20.924Z,74.44
2018-06-25T02:26:49.908Z,74.83
2018-06-25T02:29:18.723Z,74.91
2018-06-25T02:31:47.652Z,74.99
2018-06-25T02:34:19.114Z,75.00
2018-06-25T02:36:48.064Z,75.29
2018-06-25T02:39:16.956Z,74.68
2018-06-25T02:41:45.941Z,74.77
2018-06-25T02:44:14.900Z,74.03
2018-06-25T02:46:43.743Z,74.81
2018-06-25T02:49:12.645Z,74.62
2018-06-25T02:51:41.557Z,74.77
2018-06-25T02:54:10.431Z,74.84
2018-06-25T02:56:39.371Z,74.54
2018-06-25T02:59:08.381Z,74.80
2018-06-25T03:01:40.228Z,74.83
2018-06-25T03:04:09.135Z,74.80
2018-06-25T03:06:37.977Z,74.70
2018-06-25T03:09:08.679Z,74.87
2018-06-25T03:11:37.486Z,74.72
2018-06-25T03:14:06.519Z,74.99
2018-06-25T03:16:35.608Z,74.96
2018-06-25T03:19:04.730Z,74.98
2018-06-25T03:21:33.654Z,74.20
2018-06-25T03:24:05.719Z,74.90
2018-06-25T03:26:34.792Z,74.80
2018-06-25T03:29:03.635Z,74.86
2018-06-25T03:31:32.573Z,74.99
2018-06-25T03:34:01.494Z,74.81
2018-06-25T03:36:30.428Z,74.04
2018-06-25T03:38:59.306Z,74.41
2018-06-25T03:41:28.199Z,74.41
2018-06-25T03:43:57.053Z,74.44
2018-06-25T03:46:25.978Z,74.34
2018-06-25T03:48:55.012Z,74.31
2018-06-25T03:51:23.958Z,73.67
2018-06-25T03:53:52.948Z,73.00
2018-06-25T03:56:21.886Z,74.12
2018-06-25T03:58:50.740Z,74.17
2018-06-25T04:01:19.694Z,74.03
2018-06-25T04:03:48.603Z,74.06
2018-06-25T04:06:17.461Z,73.11
2018-06-25T04:08:46.374Z,73.79
2018-06-25T04:11:15.294Z,73.73
2018-06-25T04:13:44.156Z,73.74
2018-06-25T04:16:13.079Z,73.62
2018-06-25T04:18:41.994Z,73.55
2018-06-25T04:21:11.065Z,73.38
2018-06-25T04:23:40.123Z,73.65
2018-06-25T04:26:09.006Z,73.53
2018-06-25T04:28:37.910Z,73.58
2018-06-25T04:31:06.794Z,73.57
2018-06-25T04:33:35.715Z,73.51
2018-06-25T04:36:04.662Z,73.40
2018-06-25T04:38:35.934Z,73.60
2018-06-25T04:41:04.809Z,73.35
2018-06-25T04:43:33.743Z,73.39
2018-06-25T04:46:02.589Z,73.33
2018-06-25T04:48:31.364Z,73.45
2018-06-25T04:51:00.198Z,72.82
2018-06-25T04:53:29.069Z,72.46
2018-06-25T04:55:57.943Z,72.71
2018-06-25T04:58:26.820Z,72.89
2018-06-25T05:00:55.707Z,72.85
2018-06-25T05:03:24.577Z,72.91
2018-06-25T05:05:53.523Z,72.78
2018-06-25T05:08:24.919Z,72.61
2018-06-25T05:10:53.788Z,72.24
2018-06-25T05:13:22.659Z,72.15
2018-06-25T05:15:51.549Z,71.52
2018-06-25T05:18:20.454Z,71.51
2018-06-25T05:20:49.347Z,71.89
2018-06-25T05:23:18.321Z,71.60
2018-06-25T05:25:47.488Z,71.18
2018-06-25T05:28:16.371Z,71.21
2018-06-25T05:30:45.294Z,71.08
2018-06-25T05:33:14.202Z,70.00
2018-06-25T05:35:43.071Z,70.62
2018-06-25T05:38:11.983Z,70.28
2018-06-25T05:40:41.001Z,69.82
2018-06-25T05:43:09.785Z,69.85
2018-06-25T05:45:38.664Z,69.68
2018-06-25T05:48:13.555Z,70.04
2018-06-25T05:50:42.468Z,69.69
2018-06-25T05:53:11.366Z,69.37
2018-06-25T05:55:40.228Z,69.49
2018-06-25T05:58:09.149Z,69.00
2018-06-25T06:00:38.053Z,68.56
2018-06-25T06:03:07.001Z,68.77
2018-06-25T06:05:35.908Z,68.56
2018-06-25T06:08:04.805Z,68.87
2018-06-25T06:10:33.795Z,68.80
2018-06-25T06:13:02.696Z,68.93
2018-06-25T06:15:31.575Z,69.03
2018-06-25T06:18:00.476Z,68.91
2018-06-25T06:20:29.368Z,68.87
2018-06-25T06:22:58.250Z,69.09
2018-06-25T06:25:27.175Z,69.04
2018-06-25T06:27:56.136Z,68.78
2018-06-25T06:30:25.043Z,68.70
2018-06-25T06:32:57.042Z,68.79
2018-06-25T06:35:25.899Z,68.41
2018-06-25T06:37:54.770Z,67.99
2018-06-25T06:40:23.635Z,68.08
2018-06-25T06:42:52.504Z,68.34
2018-06-25T06:45:21.446Z,68.15
2018-06-25T06:47:50.219Z,67.91
2018-06-25T06:50:19.137Z,67.94
2018-06-25T06:52:48.019Z,67.89
2018-06-25T06:55:17.035Z,67.45
2018-06-25T06:57:45.910Z,67.42
2018-06-25T07:00:14.809Z,67.17
2018-06-25T07:02:43.676Z,66.66
2018-06-25T07:05:12.553Z,66.63
2018-06-25T07:07:41.454Z,66.62
2018-06-25T07:10:10.405Z,66.55
2018-06-25T07:12:39.230Z,66.27
2018-06-25T07:15:08.108Z,66.02
2018-06-25T07:17:36.994Z,66.66
2018-06-25T07:20:06.002Z,66.68
2018-06-25T07:22:34.845Z,66.35
2018-06-25T07:25:03.782Z,66.22
2018-06-25T07:27:32.855Z,66.37
2018-06-25T07:30:01.940Z,66.06
2018-06-25T07:32:30.898Z,66.38
2018-06-25T07:34:59.673Z,66.10
2018-06-25T07:37:30.366Z,66.23
2018-06-25T07:39:59.631Z,66.05
2018-06-25T07:42:28.578Z,65.10
2018-06-25T07:44:57.745Z,65.29
2018-06-25T07:47:26.807Z,65.19
2018-06-25T07:49:55.739Z,64.97
2018-06-25T07:52:24.560Z,65.20
2018-06-25T07:54:53.706Z,64.78
2018-06-25T07:57:22.488Z,64.80
2018-06-25T07:59:54.304Z,64.79
2018-06-25T08:02:23.210Z,64.75
2018-06-25T08:04:52.105Z,64.32
2018-06-25T08:07:21.032Z,64.04
2018-06-25T08:09:49.884Z,63.88
2018-06-25T08:12:18.703Z,63.18
2018-06-25T08:14:47.554Z,63.04
2018-06-25T08:17:16.466Z,62.66
2018-06-25T08:19:45.700Z,62.30
2018-06-25T08:22:14.536Z,61.22
2018-06-25T08:24:51.179Z,60.84
2018-06-25T08:27:20.098Z,60.32
2018-06-25T08:29:49.185Z,60.19
2018-06-25T08:32:18.169Z,60.72
2018-06-25T08:34:47.155Z,59.76
2018-06-25T08:37:16.140Z,60.70
2018-06-25T08:39:45.862Z,59.87
2018-06-25T08:42:14.777Z,59.37
2018-06-25T08:44:45.221Z,60.24
2018-06-25T08:47:12.699Z,60.44
2018-06-25T08:49:41.615Z,60.63
2018-06-25T08:52:12.659Z,60.09
2018-06-25T08:54:41.986Z,59.42
2018-06-25T08:57:11.152Z,58.84
2018-06-25T08:59:40.020Z,58.45
2018-06-25T09:02:08.941Z,58.61
2018-06-25T09:04:37.810Z,59.23
2018-06-25T09:07:06.837Z,58.51
2018-06-25T09:09:40.750Z,59.59
2018-06-25T09:12:09.649Z,60.19
2018-06-25T09:14:38.549Z,60.50
2018-06-25T09:17:07.420Z,61.28
2018-06-25T09:19:36.317Z,60.96
2018-06-25T09:22:05.180Z,60.69
2018-06-25T09:24:34.063Z,60.63
2018-06-25T09:27:02.973Z,60.38
2018-06-25T09:29:31.876Z,61.13
2018-06-25T09:32:00.961Z,61.37
2018-06-25T09:34:49.075Z,61.50
2018-06-25T09:37:18.909Z,60.52
2018-06-25T09:39:49.245Z,60.21
2018-06-25T09:42:18.224Z,60.01
2018-06-25T09:44:47.145Z,59.86
2018-06-25T09:47:16.071Z,58.95
2018-06-25T09:49:44.897Z,58.69
2018-06-25T09:52:13.799Z,58.39
2018-06-25T09:54:42.773Z,57.63
2018-06-25T09:57:11.617Z,56.59
2018-06-25T09:59:40.574Z,56.41
2018-06-25T10:02:09.455Z,56.71
2018-06-25T10:04:38.377Z,56.42
2018-06-25T10:07:07.410Z,54.96
2018-06-25T10:09:36.193Z,52.99
2018-06-25T10:12:05.137Z,52.55
2018-06-25T10:14:33.935Z,52.64
2018-06-25T10:17:03.042Z,52.80
2018-06-25T10:19:31.983Z,53.16
2018-06-25T10:22:03.968Z,54.15
2018-06-25T10:24:32.851Z,54.31
2018-06-25T10:27:01.702Z,54.70
2018-06-25T10:29:30.613Z,55.04
2018-06-25T10:31:59.516Z,55.35
2018-06-25T10:34:28.470Z,54.87
2018-06-25T10:36:57.375Z,54.11
2018-06-25T10:39:28.244Z,52.56
2018-06-25T10:41:57.196Z,49.25
2018-06-25T10:44:26.025Z,47.60
2018-06-25T10:46:54.883Z,47.29
2018-06-25T10:49:23.736Z,47.45
2018-06-25T10:51:52.605Z,48.43
2018-06-25T10:54:21.467Z,48.77
2018-06-25T10:56:50.326Z,46.59
2018-06-25T10:59:19.283Z,44.38
2018-06-25T11:01:48.056Z,41.25
2018-06-25T11:04:16.905Z,40.09
2018-06-25T11:06:45.724Z,37.90
2018-06-25T11:09:14.559Z,37.28
2018-06-25T11:11:43.430Z,38.32
2018-06-25T11:14:12.287Z,39.80
2018-06-25T11:16:41.128Z,39.98
2018-06-25T11:19:11.145Z,37.52
2018-06-25T11:21:39.869Z,35.78
2018-06-25T11:24:08.690Z,33.92
2018-06-25T11:27:32.443Z,33.23
2018-06-25T11:30:01.147Z,36.79
2018-06-25T11:32:30.000Z,38.16
2018-06-25T11:34:58.831Z,39.15
2018-06-25T11:37:27.653Z,39.39
2018-06-25T11:40:45.439Z,36.62
2018-06-25T11:43:14.298Z,35.33
2018-06-25T11:45:43.120Z,34.21
2018-06-25T11:48:12.164Z,34.16
2018-06-25T11:50:43.133Z,34.54
2018-06-25T11:53:12.164Z,33.02
2018-06-25T11:55:41.054Z,32.49
2018-06-25T11:58:09.884Z,31.74
2018-06-25T12:00:38.758Z,32.28
2018-06-25T12:03:08.011Z,33.09
2018-06-25T12:05:36.747Z,33.74
2018-06-25T12:08:05.571Z,32.56
2018-06-25T12:10:34.486Z,32.64
2018-06-25T12:13:03.312Z,32.98
2018-06-25T12:15:32.150Z,32.49
2018-06-25T12:18:01.013Z,32.85
2018-06-25T12:20:29.854Z,33.09
2018-06-25T12:22:58.685Z,33.51
2018-06-25T12:25:27.488Z,33.37
2018-06-25T12:27:56.390Z,33.70
2018-06-25T12:30:25.254Z,35.29
2018-06-25T12:32:54.095Z,35.66
2018-06-25T12:35:22.969Z,36.38
2018-06-25T12:37:51.827Z,35.59
2018-06-25T12:40:20.625Z,36.26
2018-06-25T12:42:49.453Z,34.50
2018-06-25T12:45:18.302Z,34.59
2018-06-25T12:47:47.110Z,35.88
2018-06-25T12:50:15.950Z,36.49
2018-06-25T12:52:44.978Z,37.58
2018-06-25T12:55:13.863Z,38.87
2018-06-25T12:57:42.666Z,39.18
2018-06-25T13:00:11.568Z,38.54
2018-06-25T13:02:40.388Z,37.05
2018-06-25T13:05:09.235Z,37.66
2018-06-25T13:07:38.100Z,36.01
2018-06-25T13:10:07.236Z,36.34
2018-06-25T13:12:36.084Z,36.60
2018-06-25T13:15:08.964Z,36.76
2018-06-25T13:17:37.796Z,37.14
2018-06-25T13:20:06.712Z,37.91
2018-06-25T13:22:35.529Z,36.86
2018-06-25T13:25:04.471Z,35.88
2018-06-25T13:27:33.314Z,37.11
2018-06-25T13:30:02.660Z,38.03
2018-06-25T13:32:31.497Z,38.83
2018-06-25T13:35:00.346Z,37.97
2018-06-25T13:37:29.228Z,38.06
2018-06-25T13:39:58.075Z,37.61
2018-06-25T13:42:26.903Z,38.04
2018-06-25T13:44:55.762Z,37.60
2018-06-25T13:47:24.614Z,38.08
2018-06-25T13:49:53.468Z,37.63
2018-06-25T13:52:22.699Z,37.82
2018-06-25T13:54:51.621Z,37.82
2018-06-25T13:57:20.607Z,37.75
2018-06-25T13:59:49.464Z,37.88
2018-06-25T14:02:18.352Z,38.33
2018-06-25T14:04:47.208Z,38.29
2018-06-25T14:07:16.062Z,38.24
2018-06-25T14:09:44.910Z,37.48
2018-06-25T14:12:13.842Z,37.53
2018-06-25T14:14:42.809Z,37.06
2018-06-25T14:17:11.693Z,36.93
2018-06-25T14:19:47.922Z,37.37
2018-06-25T14:22:16.829Z,37.66
2018-06-25T14:25:01.739Z,37.87
2018-06-25T14:27:48.471Z,38.35
2018-06-25T14:30:35.304Z,38.30
2018-06-25T14:33:04.766Z,37.80
2018-06-25T14:35:33.630Z,37.86
2018-06-25T14:38:02.570Z,38.02
2018-06-25T14:40:31.673Z,37.82
2018-06-25T14:43:00.449Z,38.31
2018-06-25T14:45:29.298Z,37.76
2018-06-25T14:47:58.207Z,38.30
2018-06-25T14:50:27.019Z,37.18
2018-06-25T14:52:55.894Z,37.15
2018-06-25T14:55:24.807Z,36.18
2018-06-25T14:57:53.644Z,36.07
2018-06-25T15:00:22.499Z,36.66
2018-06-25T15:02:57.225Z,37.26
2018-06-25T15:05:26.069Z,37.61
2018-06-25T15:07:54.900Z,36.67
2018-06-25T15:10:23.771Z,37.26
2018-06-25T15:12:52.602Z,36.07
2018-06-25T15:15:21.455Z,35.98
2018-06-25T15:17:50.354Z,35.89
2018-06-25T15:20:19.182Z,36.35
2018-06-25T15:22:48.039Z,36.77
2018-06-25T15:25:34.747Z,37.07
2018-06-25T15:28:03.632Z,37.47
2018-06-25T15:30:32.532Z,37.67
2018-06-25T15:33:01.378Z,37.15
2018-06-25T15:35:30.217Z,37.01
2018-06-25T15:37:59.117Z,36.91
2018-06-25T15:40:27.886Z,36.23
2018-06-25T15:42:56.756Z,36.80
2018-06-25T15:45:25.621Z,37.18
2018-06-25T15:48:00.829Z,37.55
2018-06-25T15:50:29.648Z,37.58
2018-06-25T15:52:58.568Z,37.25
2018-06-25T15:55:27.453Z,37.27
2018-06-25T15:57:56.312Z,35.95
2018-06-25T16:00:25.158Z,36.42
2018-06-25T16:02:54.007Z,36.94
2018-06-25T16:05:22.848Z,36.62
2018-06-25T16:07:51.813Z,36.80
2018-06-25T16:10:20.737Z,36.40
2018-06-25T16:12:49.612Z,36.98
2018-06-25T16:15:18.454Z,37.34
2018-06-25T16:17:47.389Z,37.50
2018-06-25T16:20:16.223Z,38.06
2018-06-25T16:22:45.089Z,38.12
2018-06-25T16:25:13.962Z,38.86
2018-06-25T16:27:42.854Z,38.76
2018-06-25T16:30:11.673Z,38.81
2018-06-25T16:32:46.453Z,39.26
2018-06-25T16:35:15.649Z,38.82
2018-06-25T16:37:44.811Z,38.88
2018-06-25T16:40:13.671Z,39.23
2018-06-25T16:42:42.548Z,38.67
2018-06-25T16:45:11.432Z,38.48
2018-06-25T16:47:40.274Z,38.44
2018-06-25T16:50:09.138Z,38.47
2018-06-25T16:52:37.999Z,38.23
2018-06-25T16:55:06.904Z,38.65
2018-06-25T16:57:37.576Z,38.91
2018-06-25T17:00:06.762Z,39.56
2018-06-25T17:02:35.624Z,39.41
2018-06-25T17:05:04.495Z,39.61
2018-06-25T17:07:33.353Z,40.32
2018-06-25T17:10:02.195Z,40.27
2018-06-25T17:12:31.077Z,40.72
2018-06-25T17:14:59.928Z,41.21
2018-06-25T17:17:28.755Z,42.23
2018-06-25T17:19:57.628Z,42.80
2018-06-25T17:22:26.471Z,43.61
2018-06-25T17:24:55.381Z,44.21
2018-06-25T17:27:24.219Z,44.30
2018-06-25T17:29:53.084Z,44.65
2018-06-25T17:32:21.937Z,45.11
2018-06-25T17:34:50.789Z,45.45
2018-06-25T17:37:23.039Z,45.80
2018-06-25T17:39:51.935Z,46.41
2018-06-25T17:42:20.810Z,46.65
2018-06-25T17:44:49.659Z,47.27
2018-06-25T17:47:18.515Z,47.59
2018-06-25T17:49:47.377Z,47.62
2018-06-25T17:52:16.195Z,47.73
2018-06-25T17:54:45.115Z,47.82
2018-06-25T17:57:13.872Z,47.91
2018-06-25T17:59:42.729Z,48.16
2018-06-25T18:02:11.552Z,48.38
2018-06-25T18:04:58.569Z,48.41
2018-06-25T18:07:27.396Z,48.88
2018-06-25T18:09:56.234Z,49.14
2018-06-25T18:12:25.069Z,49.36
2018-06-25T18:14:53.917Z,49.68
2018-06-25T18:17:22.773Z,50.16
2018-06-25T18:19:51.600Z,50.16
2018-06-25T18:22:20.440Z,50.26
2018-06-25T18:24:49.296Z,50.75
2018-06-25T18:27:18.150Z,51.13
2018-06-25T18:29:46.989Z,51.15
2018-06-25T18:32:15.823Z,51.37
2018-06-25T18:34:44.666Z,51.10
2018-06-25T18:37:13.545Z,51.28
2018-06-25T18:39:42.378Z,51.35
2018-06-25T18:42:11.236Z,51.91
2018-06-25T18:44:40.132Z,51.91
2018-06-25T18:47:08.951Z,52.30
2018-06-25T18:49:44.173Z,52.84
2018-06-25T18:52:13.039Z,52.66
2018-06-25T18:54:41.855Z,52.53
2018-06-25T18:57:10.760Z,52.61
2018-06-25T18:59:39.602Z,53.10
2018-06-25T19:02:08.462Z,53.04
2018-06-25T19:04:37.318Z,53.09
2018-06-25T19:07:06.197Z,53.71
2018-06-25T19:09:35.083Z,53.87
2018-06-25T19:12:07.078Z,54.19
2018-06-25T19:14:35.918Z,54.79
2018-06-25T19:17:04.837Z,54.64
2018-06-25T19:19:33.720Z,55.09
2018-06-25T19:22:02.562Z,55.28
2018-06-25T19:24:31.413Z,55.59
2018-06-25T19:27:00.260Z,55.82
2018-06-25T19:29:29.108Z,56.13
2018-06-25T19:31:57.937Z,56.48
2018-06-25T19:34:28.191Z,56.69
2018-06-25T19:36:57.027Z,56.98
2018-06-25T19:39:25.871Z,57.30
2018-06-25T19:41:54.751Z,57.57
2018-06-25T19:44:23.618Z,57.97
2018-06-25T19:46:52.562Z,58.28
2018-06-25T19:49:21.338Z,58.57
2018-06-25T19:51:51.163Z,58.80
2018-06-25T19:54:20.051Z,59.13
2018-06-25T19:56:49.020Z,59.11
2018-06-25T19:59:17.894Z,59.23
2018-06-25T20:01:46.814Z,59.49
2018-06-25T20:04:15.739Z,59.70
2018-06-25T20:06:44.588Z,60.30
2018-06-25T20:09:13.732Z,60.19
2018-06-25T20:11:42.672Z,60.34
2018-06-25T20:14:11.559Z,60.33
2018-06-25T20:16:40.496Z,60.63
2018-06-25T20:19:09.439Z,60.96
2018-06-25T20:21:38.234Z,61.19
2018-06-25T20:24:07.066Z,61.58
2018-06-25T20:26:35.942Z,62.32
2018-06-25T20:29:05.139Z,62.70
2018-06-25T20:31:33.995Z,62.50
2018-06-25T20:34:03.019Z,62.51
2018-06-25T20:36:32.716Z,62.35
2018-06-25T20:39:01.613Z,62.72
2018-06-25T20:41:30.495Z,63.03
2018-06-25T20:43:59.501Z,63.44
2018-06-25T20:46:28.460Z,63.37
2018-06-25T20:48:57.327Z,63.52
2018-06-25T20:51:26.215Z,63.89
2018-06-25T20:53:55.056Z,64.19
2018-06-25T20:56:23.922Z,64.44
2018-06-25T20:58:52.899Z,64.36
2018-06-25T21:01:21.843Z,64.56
2018-06-25T21:03:50.711Z,64.84
2018-06-25T21:06:19.649Z,64.70
2018-06-25T21:08:48.420Z,65.06
2018-06-25T21:11:17.266Z,64.99
2018-06-25T21:13:46.101Z,65.20
2018-06-25T21:16:14.960Z,65.35
2018-06-25T21:18:44.057Z,65.86
2018-06-25T21:21:12.947Z,66.10
2018-06-25T21:24:17.781Z,66.40
2018-06-25T21:26:46.587Z,66.38
2018-06-25T21:29:15.461Z,66.77
2018-06-25T21:31:44.350Z,66.54
2018-06-25T21:34:13.241Z,66.59
2018-06-25T21:36:42.110Z,66.61
2018-06-25T21:39:11.035Z,67.13
2018-06-25T21:41:39.907Z,67.26
2018-06-25T21:44:08.756Z,67.54
2018-06-25T21:46:39.147Z,67.72
2018-06-25T21:49:08.012Z,68.05
2018-06-25T21:51:36.901Z,68.72
2018-06-25T21:54:05.794Z,68.88
2018-06-25T21:56:34.664Z,69.25
2018-06-25T21:59:03.527Z,68.34
2018-06-25T22:01:32.365Z,69.04
2018-06-25T22:04:01.261Z,69.08
2018-06-25T22:06:30.122Z,69.01
2018-06-25T22:09:08.149Z,68.99
2018-06-25T22:11:37.001Z,69.32
2018-06-25T22:14:05.937Z,69.43
2018-06-25T22:16:34.874Z,69.79
2018-06-25T22:19:03.735Z,69.90
2018-06-25T22:21:32.610Z,69.90
2018-06-25T22:24:01.538Z,70.13
2018-06-25T22:26:30.392Z,69.84
2018-06-25T22:28:59.251Z,70.04
2018-06-25T22:31:28.122Z,70.42
2018-06-25T22:33:56.948Z,70.36
2018-06-25T22:36:25.798Z,70.74
2018-06-25T22:38:54.635Z,71.04
2018-06-25T22:41:23.676Z,71.48
2018-06-25T22:43:52.520Z,71.03
2018-06-25T22:46:21.388Z,71.58
2018-06-25T22:48:50.209Z,70.60
2018-06-25T22:51:20.634Z,71.32
2018-06-25T22:53:49.509Z,71.13
2018-06-25T22:56:18.388Z,71.03
2018-06-25T22:58:47.235Z,71.07
2018-06-25T23:01:16.092Z,71.63
2018-06-25T23:03:45.042Z,71.66
2018-06-25T23:06:13.864Z,71.81
2018-06-25T23:08:42.724Z,71.82
2018-06-25T23:11:11.915Z,71.77
2018-06-25T23:13:40.969Z,71.81
2018-06-25T23:16:09.841Z,71.71
2018-06-25T23:18:38.721Z,71.46
2018-06-25T23:21:07.883Z,71.75
2018-06-25T23:23:36.735Z,72.06
2018-06-25T23:26:05.619Z,72.34
2018-06-25T23:28:34.499Z,72.49
2018-06-25T23:31:03.342Z,72.13
2018-06-25T23:33:32.205Z,72.03
2018-06-25T23:36:01.182Z,72.08
2018-06-25T23:38:30.069Z,72.36
2018-06-25T23:40:58.936Z,71.88
2018-06-25T23:43:27.775Z,72.28
2018-06-25T23:45:56.604Z,71.98
2018-06-25T23:48:25.454Z,71.91
2018-06-25T23:50:54.313Z,72.03
2018-06-25T23:53:23.150Z,71.98
2018-06-25T23:55:51.989Z,71.91
2018-06-25T23:58:20.917Z,72.15
